Time;durP1;ratioP1;P1;durP2;ratioP2;P2;SDS_P1;SDS_P2;PMS_P1;PMS_P2;Temp;Humidity;BMP_temperature;BMP_pressure;BME280_temperature;BME280_humidity;BME280_pressure;Samples;Min_cycle;Max_cycle;Signal;HPM_P1;HPM_P2
2021/04/05 00:01:30;;;;;;;29.63;10.27;;;10.10;99.90;;;;;;4903990;29;20051;-87
2021/04/05 00:03:58;;;;;;;35.55;11.68;;;;;;;;;;4897626;29;20048;-86
2021/04/05 00:06:26;;;;;;;28.08;10.60;;;;;;;;;;4900047;29;20060;-89
2021/04/05 00:08:55;;;;;;;28.33;9.88;;;;;;;;;;4940768;29;20075;-87
2021/04/05 00:11:22;;;;;;;27.02;10.77;;;;;;;;;;4943747;29;20056;-86
2021/04/05 00:13:50;;;;;;;31.77;13.57;;;;;;;;;;4920039;29;20091;-89
2021/04/05 00:16:20;;;;;;;28.90;10.98;;;10.00;99.90;;;;;;4957968;29;20048;-86
2021/04/05 00:18:48;;;;;;;33.08;14.00;;;;;;;;;;4931696;29;20052;-87
2021/04/05 00:21:21;;;;;;;30.77;11.45;;;10.00;99.90;;;;;;4901952;29;20048;-86
2021/04/05 00:23:49;;;;;;;26.70;11.60;;;10.00;99.90;;;;;;4951397;29;20051;-85
2021/04/05 00:26:19;;;;;;;24.70;11.23;;;9.80;99.90;;;;;;4926865;29;20048;-87
2021/04/05 00:28:48;;;;;;;25.50;11.35;;;9.90;99.90;;;;;;4932601;29;20048;-87
2021/04/05 00:31:16;;;;;;;23.35;9.15;;;;;;;;;;4904478;29;20147;-87
2021/04/05 00:33:44;;;;;;;32.65;10.07;;;;;;;;;;4956465;29;20048;-87
2021/04/05 00:36:12;;;;;;;31.13;10.88;;;;;;;;;;4947888;29;20059;-86
2021/04/05 00:38:44;;;;;;;28.23;10.80;;;;;;;;;;4935085;29;20415;-85
2021/04/05 00:41:20;;;;;;;29.48;10.57;;;;;;;;;;4921678;29;20171;-85
2021/04/05 00:43:50;;;;;;;25.50;10.38;;;9.60;99.90;;;;;;4940079;29;20054;-85
2021/04/05 00:46:24;;;;;;;26.83;12.45;;;9.50;99.90;;;;;;4947293;29;20058;-87
2021/04/05 00:49:05;;;;;;;24.73;10.63;;;9.50;99.90;;;;;;4932838;29;20051;-85
2021/04/05 00:51:33;;;;;;;33.08;10.02;;;;;;;;;;4911235;29;20078;-86
2021/04/05 00:54:15;;;;;;;31.38;11.80;;;;;;;;;;4962642;29;20052;-87
2021/04/05 00:56:44;;;;;;;31.77;11.43;;;;;;;;;;4935338;29;20066;-86
2021/04/05 00:59:15;;;;;;;26.42;12.90;;;;;;;;;;4934404;29;20070;-86
2021/04/05 01:01:43;;;;;;;25.75;10.98;;;9.70;99.90;;;;;;4936275;29;20051;-87
2021/04/05 01:04:11;;;;;;;40.05;11.52;;;;;;;;;;4919090;29;20047;-87
2021/04/05 01:06:40;;;;;;;28.42;10.98;;;;;;;;;;4933642;29;20064;-86
2021/04/05 01:09:08;;;;;;;30.67;11.93;;;;;;;;;;4929499;29;20055;-86
2021/04/05 01:11:37;;;;;;;25.23;12.15;;;;;;;;;;4926435;29;20055;-89
2021/04/05 01:14:05;;;;;;;28.77;11.23;;;9.40;99.90;;;;;;4936941;29;20443;-87
2021/04/05 01:16:32;;;;;;;23.10;11.70;;;;;;;;;;4936739;29;20373;-87
2021/04/05 01:19:01;;;;;;;35.60;11.85;;;;;;;;;;4930487;29;20055;-86
2021/04/05 01:21:29;;;;;;;23.35;9.68;;;;;;;;;;4935929;29;20054;-85
2021/04/05 01:23:57;;;;;;;22.52;10.77;;;;;;;;;;4958866;29;20062;-86
2021/04/05 01:26:25;;;;;;;30.58;11.23;;;;;;;;;;4935431;29;20051;-87
2021/04/05 01:28:53;;;;;;;30.75;9.02;;;;;;;;;;4955023;29;20064;-85
2021/04/05 01:31:21;;;;;;;23.98;10.45;;;;;;;;;;4937765;29;20063;-87
2021/04/05 01:33:48;;;;;;;28.90;10.63;;;;;;;;;;4939750;29;20055;-87
2021/04/05 01:36:17;;;;;;;33.28;13.60;;;9.20;99.90;;;;;;4898748;29;20056;-89
2021/04/05 01:38:51;;;;;;;21.33;11.43;;;9.10;99.90;;;;;;4938106;29;20492;-86
2021/04/05 01:41:22;;;;;;;36.28;12.60;;;9.20;99.90;;;;;;4915381;29;20055;-86
2021/04/05 01:43:51;;;;;;;34.38;13.88;;;9.10;99.90;;;;;;4935599;29;20055;-86
2021/04/05 01:46:20;;;;;;;28.02;8.82;;;9.20;99.90;;;;;;4943657;29;20060;-87
2021/04/05 01:48:47;;;;;;;26.20;10.27;;;;;;;;;;4953688;29;20059;-87
2021/04/05 01:51:22;;;;;;;22.33;10.80;;;9.10;99.90;;;;;;4932533;29;20075;-88
2021/04/05 01:53:51;;;;;;;27.80;11.02;;;9.00;99.90;;;;;;4924261;29;20067;-86
2021/04/05 01:56:19;;;;;;;27.88;9.77;;;9.00;99.90;;;;;;4934435;29;20054;-87
2021/04/05 01:58:50;;;;;;;30.42;12.57;;;9.00;99.90;;;;;;4924439;29;20547;-85
2021/04/05 02:01:21;;;;;;;28.73;11.77;;;9.00;99.90;;;;;;4912686;29;20812;-88
2021/04/05 02:03:48;;;;;;;22.00;9.23;;;;;;;;;;4906150;29;20044;-88
2021/04/05 02:06:20;;;;;;;17.77;9.27;;;8.70;99.90;;;;;;4914628;29;20110;-87
2021/04/05 02:08:48;;;;;;;24.70;11.18;;;;;;;;;;4936369;29;20411;-87
2021/04/05 02:11:18;;;;;;;25.70;11.15;;;9.00;99.90;;;;;;4921120;29;20047;-86
2021/04/05 02:13:49;;;;;;;25.35;11.30;;;9.00;99.90;;;;;;4930570;29;20066;-86
2021/04/05 02:16:19;;;;;;;27.25;9.77;;;8.90;99.90;;;;;;4932301;29;20581;-86
2021/04/05 02:18:48;;;;;;;28.63;10.35;;;9.00;99.90;;;;;;4941980;29;20396;-87
2021/04/05 02:21:18;;;;;;;33.75;11.70;;;9.00;99.90;;;;;;4957461;29;20047;-87
2021/04/05 02:23:47;;;;;;;19.17;9.70;;;9.00;99.90;;;;;;4934033;29;20052;-86
2021/04/05 02:26:24;;;;;;;24.88;10.07;;;8.80;99.90;;;;;;4906231;29;20074;-87
2021/04/05 02:28:54;;;;;;;29.67;10.77;;;8.90;99.90;;;;;;4923477;29;20064;-87
2021/04/05 02:31:23;;;;;;;18.75;9.68;;;8.70;99.90;;;;;;4912020;29;20059;-87
2021/04/05 02:33:53;;;;;;;32.72;10.18;;;8.80;99.90;;;;;;4914035;29;20052;-85
2021/04/05 02:36:32;;;;;;;21.48;8.82;;;8.70;99.90;;;;;;4944880;29;20054;-85
2021/04/05 02:39:05;;;;;;;30.08;10.27;;;8.80;99.90;;;;;;4914687;29;20055;-84
2021/04/05 02:41:35;;;;;;;28.13;9.80;;;8.90;99.90;;;;;;4932186;29;20051;-87
2021/04/05 02:44:04;;;;;;;20.42;7.85;;;8.90;99.90;;;;;;4914579;29;20052;-86
2021/04/05 02:46:34;;;;;;;27.00;10.85;;;8.90;99.90;;;;;;4947205;29;20427;-86
2021/04/05 02:49:06;;;;;;;22.63;9.32;;;8.90;99.90;;;;;;4905562;29;20058;-86
2021/04/05 02:51:34;;;;;;;22.55;9.68;;;;;;;;;;4918512;29;20051;-84
2021/04/05 02:54:02;;;;;;;26.55;10.77;;;8.80;99.90;;;;;;4908725;29;20055;-88
2021/04/05 02:56:30;;;;;;;35.80;12.52;;;;;;;;;;4924980;29;20063;-88
2021/04/05 02:58:59;;;;;;;22.27;9.98;;;9.40;99.90;;;;;;4929068;29;20055;-86
2021/04/05 03:01:27;;;;;;;16.58;8.60;;;9.00;99.90;;;;;;4911030;29;20059;-86
2021/04/05 03:03:56;;;;;;;25.13;12.82;;;9.00;99.90;;;;;;4946420;29;20062;-85
2021/04/05 03:06:26;;;;;;;23.60;11.27;;;9.00;99.90;;;;;;4936629;29;20052;-85
2021/04/05 03:08:54;;;;;;;29.33;14.40;;;;;;;;;;4925812;29;20089;-86
2021/04/05 03:11:24;;;;;;;24.70;10.60;;;8.90;99.90;;;;;;4936608;29;20052;-85
2021/04/05 03:13:52;;;;;;;20.90;9.50;;;8.90;99.90;;;;;;4923435;29;20058;-85
2021/04/05 03:16:25;;;;;;;29.73;12.02;;;8.80;99.90;;;;;;4921181;29;20063;-86
2021/04/05 03:18:55;;;;;;;24.65;10.20;;;8.50;99.90;;;;;;4922647;29;20055;-85
2021/04/05 03:21:23;;;;;;;25.05;8.68;;;9.20;99.90;;;;;;4913498;29;20218;-86
2021/04/05 03:23:52;;;;;;;24.83;10.02;;;8.70;99.90;;;;;;4905412;29;20058;-85
2021/04/05 03:26:21;;;;;;;22.25;10.00;;;;;;;;;;4940709;29;20047;-86
2021/04/05 03:28:48;;;;;;;28.38;10.63;;;;;;;;;;4919427;29;20052;-88
2021/04/05 03:31:18;;;;;;;27.13;10.70;;;8.70;99.90;;;;;;4931067;29;20055;-84
2021/04/05 03:33:55;;;;;;;21.88;10.40;;;8.40;99.90;;;;;;4940364;29;20058;-86
2021/04/05 03:36:29;;;;;;;22.60;10.45;;;8.60;99.90;;;;;;4931830;29;20054;-86
2021/04/05 03:38:58;;;;;;;26.15;9.90;;;8.50;99.90;;;;;;4940731;29;20062;-86
2021/04/05 03:41:40;;;;;;;21.13;10.02;;;;;;;;;;4933776;29;20059;-85
2021/04/05 03:44:20;;;;;;;37.60;12.13;;;8.50;99.90;;;;;;4952630;29;20048;-86
2021/04/05 03:46:50;;;;;;;27.45;9.38;;;8.50;99.90;;;;;;4919187;29;20062;-86
2021/04/05 03:49:36;;;;;;;23.05;9.52;;;8.50;99.90;;;;;;4924799;29;20055;-87
2021/04/05 03:52:25;;;;;;;24.95;11.82;;;8.50;99.90;;;;;;4919744;29;20048;-86
2021/04/05 03:54:58;;;;;;;32.42;12.52;;;8.50;99.90;;;;;;4910480;29;20059;-86
2021/04/05 03:57:31;;;;;;;27.17;12.90;;;8.30;99.90;;;;;;4950844;29;20055;-86
2021/04/05 04:00:07;;;;;;;23.58;10.75;;;8.40;99.90;;;;;;4931004;29;20059;-85
2021/04/05 04:02:46;;;;;;;26.30;11.57;;;8.40;99.90;;;;;;4930588;29;20051;-85
2021/04/05 04:05:30;;;;;;;22.45;12.13;;;8.30;99.90;;;;;;4946511;29;20069;-84
2021/04/05 04:10:31;;;;;;;25.80;12.47;;;8.30;99.90;;;;;;4943019;29;20054;-87
2021/04/05 04:13:03;;;;;;;30.27;13.13;;;8.30;99.90;;;;;;4934508;29;20055;-86
2021/04/05 04:15:33;;;;;;;24.75;10.63;;;8.30;99.90;;;;;;4946794;29;20058;-85
2021/04/05 04:18:03;;;;;;;22.95;10.25;;;8.30;99.90;;;;;;4950146;29;20063;-85
2021/04/05 04:20:31;;;;;;;28.20;11.90;;;;;;;;;;4947007;29;20044;-87
2021/04/05 04:22:58;;;;;;;34.67;12.15;;;;;;;;;;4950768;29;20055;-86
2021/04/05 04:25:26;;;;;;;23.27;10.05;;;;;;;;;;4927675;29;20056;-87
2021/04/05 04:27:53;;;;;;;25.90;11.95;;;;;;;;;;4938589;29;20055;-86
2021/04/05 04:30:33;;;;;;;22.70;10.32;;;8.40;99.90;;;;;;4924488;29;20047;-84
2021/04/05 04:33:09;;;;;;;22.05;9.75;;;8.30;99.90;;;;;;4944950;29;20062;-86
2021/04/05 04:35:38;;;;;;;18.67;10.88;;;8.40;99.90;;;;;;4927634;29;20403;-87
2021/04/05 04:38:06;;;;;;;23.90;9.20;;;;;;;;;;4926785;29;20074;-87
2021/04/05 04:40:35;;;;;;;35.75;12.18;;;8.40;99.90;;;;;;4945551;29;20050;-87
2021/04/05 04:43:05;;;;;;;24.77;10.38;;;8.30;99.90;;;;;;4941120;29;20066;-87
2021/04/05 04:45:34;;;;;;;23.60;9.88;;;8.50;99.90;;;;;;4953929;29;20052;-86
2021/04/05 04:48:01;;;;;;;22.80;9.93;;;;;;;;;;4935829;29;20048;-86
2021/04/05 04:50:29;;;;;;;21.42;9.10;;;8.30;99.90;;;;;;4921877;29;20056;-87
2021/04/05 04:52:57;;;;;;;20.10;8.63;;;8.50;99.90;;;;;;4947922;29;20052;-86
2021/04/05 04:55:26;;;;;;;31.02;11.80;;;8.50;99.90;;;;;;4949815;28;20055;-85
2021/04/05 04:57:56;;;;;;;19.98;11.60;;;8.50;99.90;;;;;;4918299;29;20067;-86
2021/04/05 05:00:24;;;;;;;15.07;8.75;;;8.50;99.90;;;;;;4953806;29;20415;-87
2021/04/05 05:02:52;;;;;;;19.17;7.45;;;;;;;;;;4937785;29;20066;-87
2021/04/05 05:05:22;;;;;;;17.38;9.43;;;8.60;99.90;;;;;;4933149;29;20047;-87
2021/04/05 05:07:49;;;;;;;21.60;9.32;;;8.60;99.90;;;;;;4908337;29;20408;-87
2021/04/05 05:10:20;;;;;;;23.02;7.95;;;8.60;99.90;;;;;;4912112;29;20056;-87
2021/04/05 05:12:48;;;;;;;20.48;7.30;;;;;;;;;;4933374;29;20052;-87
2021/04/05 05:15:16;;;;;;;15.18;6.43;;;;;;;;;;4936945;29;20060;-87
2021/04/05 05:17:46;;;;;;;12.82;6.68;;;8.70;99.90;;;;;;4924069;29;20058;-85
2021/04/05 05:20:15;;;;;;;11.43;5.40;;;8.70;99.90;;;;;;4942624;29;20058;-87
2021/04/05 05:23:01;;;;;;;5.25;3.50;;;9.10;99.90;;;;;;4927290;29;20058;-85
2021/04/05 05:25:33;;;;;;;12.18;4.00;;;9.00;99.90;;;;;;4932406;29;20059;-86
2021/04/05 05:28:05;;;;;;;9.18;4.28;;;8.90;99.90;;;;;;4935331;28;20581;-87
2021/04/05 05:30:41;;;;;;;15.47;4.80;;;8.80;99.90;;;;;;4829381;29;10000531;-87
2021/04/05 05:33:09;;;;;;;13.77;4.97;;;;;;;;;;4913543;29;20256;-86
2021/04/05 05:35:37;;;;;;;11.82;4.07;;;;;;;;;;4956457;29;20055;-86
2021/04/05 05:38:06;;;;;;;13.50;4.68;;;8.10;99.90;;;;;;4924386;29;20055;-86
2021/04/05 05:40:34;;;;;;;21.10;5.22;;;7.90;99.90;;;;;;4946923;29;20058;-86
2021/04/05 05:43:41;;;;;;;22.63;5.55;;;7.90;99.90;;;;;;4939462;29;20051;-85
2021/04/05 05:46:44;;;;;;;12.27;4.68;;;7.70;99.90;;;;;;4918210;29;20058;-85
2021/04/05 05:49:34;;;;;;;17.90;4.00;;;7.80;99.90;;;;;;4911915;29;20048;-87
2021/04/05 05:52:18;;;;;;;18.85;4.85;;;7.60;99.90;;;;;;4933305;29;20051;-86
2021/04/05 05:55:16;;;;;;;19.27;4.50;;;7.70;99.90;;;;;;4898608;29;20082;-87
2021/04/05 05:57:47;;;;;;;10.63;5.40;;;;;;;;;;4904491;29;20052;-88
2021/04/05 06:00:22;;;;;;;23.85;7.10;;;7.90;99.90;;;;;;4919751;29;20593;-85
2021/04/05 06:03:19;;;;;;;19.48;6.28;;;7.60;99.90;;;;;;4923161;29;20570;-88
2021/04/05 06:06:01;;;;;;;14.57;5.40;;;7.60;99.90;;;;;;4896506;29;20058;-87
2021/04/05 06:09:02;;;;;;;11.90;4.50;;;7.60;99.90;;;;;;4915940;29;20063;-87
2021/04/05 06:11:54;;;;;;;7.55;4.13;;;7.60;99.90;;;;;;4934791;29;20075;-87
2021/04/05 06:14:28;;;;;;;12.82;3.67;;;;;;;;;;4939631;29;20063;-86
2021/04/05 06:17:13;;;;;;;7.22;2.70;;;7.60;99.20;;;;;;4913982;29;20047;-87
2021/04/05 06:19:47;;;;;;;12.27;3.20;;;7.60;98.10;;;;;;4906836;29;20051;-87
2021/04/05 06:22:26;;;;;;;4.18;3.08;;;7.50;97.50;;;;;;4935005;29;20713;-86
2021/04/05 06:25:24;;;;;;;13.65;4.03;;;7.50;97.60;;;;;;4934863;29;20677;-88
2021/04/05 06:28:21;;;;;;;12.73;3.60;;;7.50;96.30;;;;;;4922750;29;20488;-87
2021/04/05 06:30:49;;;;;;;11.45;3.03;;;;;;;;;;4913796;29;20062;-87
2021/04/05 06:33:17;;;;;;;8.05;2.67;;;;;;;;;;4932686;29;20058;-87
2021/04/05 06:35:44;;;;;;;8.15;2.63;;;;;;;;;;4937273;29;20071;-87
2021/04/05 06:38:24;;;;;;;4.18;2.95;;;7.60;95.50;;;;;;4917488;29;20056;-89
2021/04/05 06:40:56;;;;;;;14.52;3.45;;;7.40;94.30;;;;;;4921938;29;20512;-87
2021/04/05 06:43:39;;;;;;;18.23;3.20;;;7.50;92.10;;;;;;4939099;29;20058;-88
2021/04/05 06:46:28;;;;;;;15.43;3.92;;;7.60;91.50;;;;;;4909088;29;20412;-86
2021/04/05 06:49:13;;;;;;;7.70;2.72;;;7.50;91.40;;;;;;4936641;29;20402;-87
2021/04/05 06:52:02;;;;;;;11.60;4.07;;;7.50;91.70;;;;;;4941236;29;20484;-87
2021/04/05 06:54:44;;;;;;;8.10;3.17;;;7.50;91.20;;;;;;4925584;29;20066;-89
2021/04/05 06:57:17;;;;;;;9.48;3.25;;;7.50;92.20;;;;;;4938066;29;20055;-85
2021/04/05 06:59:56;;;;;;;3.90;2.55;;;7.50;90.60;;;;;;4906823;29;20062;-87
2021/04/05 07:02:58;;;;;;;11.02;2.75;;;7.40;90.60;;;;;;4932792;29;20058;-87
2021/04/05 07:05:29;;;;;;;4.43;2.40;;;;;;;;;;4929710;29;20051;-87
2021/04/05 07:08:15;;;;;;;9.82;3.28;;;7.40;90.10;;;;;;4915373;29;20044;-88
2021/04/05 07:11:05;;;;;;;12.45;3.35;;;7.50;90.20;;;;;;4916434;29;20058;-86
2021/04/05 07:13:48;;;;;;;9.23;4.50;;;7.70;91.00;;;;;;4915105;29;20060;-87
2021/04/05 07:16:34;;;;;;;11.02;3.25;;;7.40;91.60;;;;;;4899609;29;20047;-86
2021/04/05 07:19:22;;;;;;;12.80;3.00;;;7.60;89.40;;;;;;4920680;29;20059;-86
2021/04/05 07:22:31;;;;;;;11.98;2.95;;;7.50;89.40;;;;;;4914535;29;20063;-86
2021/04/05 07:25:04;;;;;;;10.75;2.72;;;7.40;91.50;;;;;;4929212;29;20054;-87
2021/04/05 07:28:01;;;;;;;13.35;3.13;;;7.40;90.40;;;;;;4898185;29;20052;-86
2021/04/05 07:30:45;;;;;;;7.30;3.55;;;7.40;90.40;;;;;;4915722;29;20048;-86
2021/04/05 07:33:22;;;;;;;9.95;2.40;;;7.40;90.70;;;;;;4914217;29;20059;-87
2021/04/05 07:35:59;;;;;;;3.72;2.40;;;;;;;;;;4915596;29;20125;-86
2021/04/05 07:39:01;;;;;;;6.35;2.92;;;7.20;91.40;;;;;;4901844;29;20052;-87
2021/04/05 07:41:30;;;;;;;9.35;5.03;;;;;;;;;;4921655;29;20407;-86
2021/04/05 07:44:07;;;;;;;9.32;2.85;;;;;;;;;;4926233;29;20087;-87
2021/04/05 07:46:45;;;;;;;8.98;3.30;;;7.40;98.60;;;;;;4954974;29;20035;-87
2021/04/05 07:49:31;;;;;;;12.43;3.90;;;7.20;99.80;;;;;;4918985;29;20051;-88
2021/04/05 07:52:34;;;;;;;7.80;2.45;;;7.00;99.60;;;;;;4947878;28;20056;-89
2021/04/05 07:55:04;;;;;;;9.73;2.72;;;6.80;99.90;;;;;;4917189;29;20558;-87
2021/04/05 07:57:43;;;;;;;12.60;2.88;;;6.80;99.90;;;;;;4932069;29;20064;-87
2021/04/05 08:00:11;;;;;;;12.23;3.03;;;;;;;;;;4918821;29;20059;-88
2021/04/05 08:03:02;;;;;;;12.00;2.97;;;6.60;99.90;;;;;;4915462;29;20058;-91
2021/04/05 08:05:48;;;;;;;9.98;2.70;;;6.80;99.90;;;;;;4925532;29;20055;-89
2021/04/05 08:08:16;;;;;;;10.10;2.42;;;;;;;;;;4903263;29;20052;-88
2021/04/05 08:11:10;;;;;;;12.77;4.90;;;6.60;99.90;;;;;;4931878;29;20047;-87
2021/04/05 08:14:22;;;;;;;10.18;2.65;;;6.80;99.90;;;;;;4900708;29;20048;-89
2021/04/05 08:17:17;;;;;;;6.97;2.58;;;6.80;99.90;;;;;;4881520;29;20059;-88
2021/04/05 08:20:00;;;;;;;9.93;5.32;;;6.80;99.90;;;;;;4920025;29;20475;-87
2021/04/05 08:22:55;;;;;;;12.52;3.78;;;6.80;99.90;;;;;;4951260;29;20058;-87
2021/04/05 08:25:31;;;;;;;14.40;5.63;;;;;;;;;;4929796;29;20047;-89
2021/04/05 08:28:10;;;;;;;6.28;3.00;;;6.80;99.90;;;;;;4918410;29;20480;-88
2021/04/05 08:30:54;;;;;;;9.82;3.15;;;7.00;99.90;;;;;;4907050;29;20047;-88
2021/04/05 08:33:33;;;;;;;12.27;3.90;;;7.00;99.90;;;;;;4927445;29;20055;-89
2021/04/05 08:36:28;;;;;;;16.50;4.22;;;7.10;99.90;;;;;;4935750;29;20051;-89
2021/04/05 08:39:02;;;;;;;9.98;2.97;;;7.00;99.90;;;;;;4908457;29;20055;-90
2021/04/05 08:41:48;;;;;;;8.98;3.35;;;;;;;;;;4900936;29;20702;-89
2021/04/05 08:44:16;;;;;;;16.55;3.53;;;;;;;;;;4908273;29;20066;-88
2021/04/05 08:46:44;;;;;;;10.27;3.53;;;7.00;99.90;;;;;;4933698;29;20073;-88
2021/04/05 08:49:19;;;;;;;16.25;3.72;;;7.20;99.90;;;;;;4935149;29;20519;-88
2021/04/05 08:51:53;;;;;;;10.65;3.70;;;7.00;99.90;;;;;;4953109;29;20062;-88
2021/04/05 08:54:26;;;;;;;7.45;3.15;;;7.40;99.90;;;;;;4936193;29;20063;-87
2021/04/05 08:57:06;;;;;;;12.82;3.67;;;7.40;99.90;;;;;;4919643;29;20063;-88
2021/04/05 08:59:59;;;;;;;12.00;4.13;;;7.10;99.90;;;;;;4917867;29;20052;-88
2021/04/05 09:02:37;;;;;;;10.95;4.97;;;7.40;99.90;;;;;;4925675;29;20064;-87
2021/04/05 09:05:09;;;;;;;8.63;3.42;;;7.40;99.90;;;;;;4919558;29;20070;-86
2021/04/05 09:07:45;;;;;;;11.60;3.53;;;7.40;99.90;;;;;;4924674;29;20058;-86
2021/04/05 09:10:17;;;;;;;7.95;2.70;;;7.60;99.90;;;;;;4953140;29;20047;-88
2021/04/05 09:12:46;;;;;;;16.67;4.57;;;7.10;99.90;;;;;;4945531;29;20062;-88
2021/04/05 09:15:28;;;;;;;10.02;3.42;;;7.00;99.90;;;;;;4947840;29;20136;-87
2021/04/05 09:18:29;;;;;;;11.02;3.65;;;6.80;99.80;;;;;;4929346;29;20059;-88
2021/04/05 09:20:57;;;;;;;11.98;2.95;;;;;;;;;;4919699;29;20053;-88
2021/04/05 09:24:01;;;;;;;8.20;3.47;;;6.40;99.00;;;;;;4945369;29;20056;-89
2021/04/05 09:27:02;;;;;;;13.23;2.72;;;6.30;99.00;;;;;;4934261;29;20062;-88
2021/04/05 09:29:38;;;;;;;9.38;3.08;;;6.20;98.40;;;;;;4942290;29;20063;-88
2021/04/05 09:32:50;;;;;;;13.63;3.15;;;6.10;98.10;;;;;;4931317;29;20082;-89
2021/04/05 09:35:23;;;;;;;14.98;5.72;;;;;;;;;;4934337;29;20051;-90
2021/04/05 09:38:04;;;;;;;2.92;2.47;;;6.00;97.10;;;;;;4906397;29;20059;-89
2021/04/05 09:40:32;;;;;;;8.55;2.45;;;;;;;;;;4938599;29;20055;-89
2021/04/05 09:42:59;;;;;;;5.95;2.97;;;;;;;;;;4910405;29;20083;-88
2021/04/05 09:45:45;;;;;;;8.52;3.17;;;5.80;99.00;;;;;;4904934;29;20047;-90
2021/04/05 09:48:15;;;;;;;11.02;3.38;;;5.80;97.20;;;;;;4937675;29;20064;-89
2021/04/05 09:51:34;;;;;;;12.65;4.05;;;5.70;99.00;;;;;;4919182;29;20055;-89
2021/04/05 09:54:31;;;;;;;8.90;3.72;;;5.50;96.70;;;;;;4872286;29;20077;-89
2021/04/05 09:57:15;;;;;;;4.63;2.08;;;5.60;98.40;;;;;;4940961;29;20063;-88
2021/04/05 09:59:48;;;;;;;8.27;3.58;;;6.10;98.40;;;;;;4917556;29;20058;-89
2021/04/05 10:02:30;;;;;;;11.25;3.22;;;5.60;98.30;;;;;;4922339;29;20059;-88
2021/04/05 10:04:59;;;;;;;4.55;2.67;;;5.70;99.90;;;;;;4913552;29;20059;-88
2021/04/05 10:07:28;;;;;;;5.90;3.72;;;5.80;97.80;;;;;;4901499;29;20052;-90
2021/04/05 10:10:00;;;;;;;12.80;4.70;;;5.80;97.90;;;;;;4917449;29;20512;-88
2021/04/05 10:12:31;;;;;;;7.15;3.20;;;5.90;97.70;;;;;;4895107;29;20084;-90
2021/04/05 10:15:02;;;;;;;4.68;3.13;;;6.00;97.40;;;;;;4921612;29;20059;-88
2021/04/05 10:17:31;;;;;;;10.98;3.72;;;6.10;97.50;;;;;;4897857;29;20056;-88
2021/04/05 10:20:05;;;;;;;7.47;2.97;;;6.10;97.30;;;;;;4899866;29;20052;-90
2021/04/05 10:22:43;;;;;;;7.22;3.20;;;5.80;99.90;;;;;;4933202;29;20055;-89
2021/04/05 10:25:21;;;;;;;4.90;2.38;;;6.10;95.40;;;;;;4902614;29;20243;-89
2021/04/05 10:27:57;;;;;;;3.33;2.97;;;6.10;97.40;;;;;;4913235;29;20047;-91
2021/04/05 10:30:33;;;;;;;6.88;3.53;;;6.10;95.00;;;;;;4904254;29;20055;-90
2021/04/05 10:33:04;;;;;;;3.35;2.53;;;6.00;96.70;;;;;;4934135;29;20060;-88
2021/04/05 10:35:36;;;;;;;3.85;3.13;;;6.20;96.50;;;;;;4921010;29;20048;-89
2021/04/05 10:38:05;;;;;;;7.25;3.53;;;6.40;95.60;;;;;;4904114;29;20082;-88
2021/04/05 10:40:37;;;;;;;5.05;2.47;;;6.50;93.30;;;;;;4912642;29;20059;-87
2021/04/05 10:43:10;;;;;;;6.43;3.53;;;6.50;94.80;;;;;;4925377;29;20550;-90
2021/04/05 10:45:39;;;;;;;3.63;2.00;;;6.70;94.50;;;;;;4901568;29;20055;-91
2021/04/05 10:48:13;;;;;;;4.15;2.00;;;5.60;91.60;;;;;;4910472;29;20056;-88
2021/04/05 10:50:45;;;;;;;15.60;3.45;;;6.80;93.40;;;;;;4908850;29;20289;-88
2021/04/05 10:53:18;;;;;;;9.25;5.30;;;6.90;93.50;;;;;;4908356;29;20054;-88
2021/04/05 10:55:52;;;;;;;9.52;4.50;;;7.00;92.70;;;;;;4909743;29;20064;-88
2021/04/05 10:58:27;;;;;;;3.03;2.65;;;7.00;92.60;;;;;;4906829;29;20072;-87
2021/04/05 11:00:58;;;;;;;7.20;3.20;;;7.10;92.80;;;;;;4911965;29;20067;-90
2021/04/05 11:03:30;;;;;;;5.32;2.65;;;7.10;91.00;;;;;;4899977;29;20088;-88
2021/04/05 11:06:06;;;;;;;9.07;3.85;;;7.00;92.00;;;;;;4922421;29;20039;-87
2021/04/05 11:08:35;;;;;;;8.48;2.63;;;7.10;91.80;;;;;;4918207;29;20043;-87
2021/04/05 11:11:12;;;;;;;7.82;2.80;;;7.30;89.80;;;;;;4911819;29;20067;-89
2021/04/05 11:13:46;;;;;;;9.73;4.35;;;7.20;90.10;;;;;;4911367;29;20059;-87
2021/04/05 11:16:18;;;;;;;8.02;2.85;;;7.30;90.20;;;;;;4882726;29;20048;-88
2021/04/05 11:18:54;;;;;;;8.00;2.95;;;7.30;86.60;;;;;;4922266;29;20456;-88
2021/04/05 11:21:39;;;;;;;12.82;4.05;;;7.20;90.10;;;;;;4909951;29;20052;-88
2021/04/05 11:24:13;;;;;;;8.35;4.00;;;7.10;85.60;;;;;;4917650;29;20412;-88
2021/04/05 11:26:44;;;;;;;9.25;2.85;;;7.00;90.10;;;;;;4881203;29;20059;-86
2021/04/05 11:29:20;;;;;;;11.63;3.20;;;7.00;86.20;;;;;;4897269;29;20048;-90
2021/04/05 11:31:49;;;;;;;9.07;2.97;;;6.90;90.30;;;;;;4901865;29;20044;-90
2021/04/05 11:34:27;;;;;;;6.43;2.90;;;7.00;90.60;;;;;;4912657;29;20485;-92
2021/04/05 11:37:03;;;;;;;5.97;3.05;;;7.20;90.60;;;;;;4912950;29;20062;-90
2021/04/05 11:39:34;;;;;;;6.68;3.30;;;7.70;85.90;;;;;;4897005;29;20053;-89
2021/04/05 11:42:05;;;;;;;5.15;2.63;;;7.10;88.30;;;;;;4895028;29;20055;-89
2021/04/05 11:44:53;;;;;;;10.43;3.50;;;7.20;85.10;;;;;;4932288;29;20050;-89
2021/04/05 11:47:24;;;;;;;7.78;2.85;;;7.40;88.90;;;;;;4887965;29;20481;-88
2021/04/05 11:49:52;;;;;;;5.70;3.15;;;;;;;;;;4915418;29;20527;-86
2021/04/05 11:52:32;;;;;;;12.00;2.75;;;7.30;82.80;;;;;;4909660;29;20043;-89
2021/04/05 11:55:03;;;;;;;6.20;2.78;;;7.50;86.60;;;;;;4910033;29;20055;-89
2021/04/05 11:57:42;;;;;;;5.25;2.90;;;7.70;86.20;;;;;;4902997;29;20048;-89
2021/04/05 12:00:14;;;;;;;5.53;3.30;;;7.80;84.60;;;;;;4914548;29;20052;-86
2021/04/05 12:03:14;;;;;;;6.10;2.95;;;7.90;80.10;;;;;;4908011;29;20062;-87
2021/04/05 12:06:13;;;;;;;4.25;2.78;;;7.90;80.70;;;;;;4915368;29;20058;-91
2021/04/05 12:09:01;;;;;;;6.13;2.92;;;8.00;80.10;;;;;;4911083;29;20058;-91
2021/04/05 12:11:32;;;;;;;5.50;2.58;;;8.10;83.80;;;;;;4898539;29;20047;-89
2021/04/05 12:14:16;;;;;;;4.57;2.40;;;8.30;82.50;;;;;;4938368;29;20140;-88
2021/04/05 12:16:55;;;;;;;12.82;3.20;;;8.10;79.70;;;;;;4927277;29;20384;-87
2021/04/05 12:19:41;;;;;;;8.75;3.17;;;7.90;74.90;;;;;;4910589;29;20056;-88
2021/04/05 12:22:10;;;;;;;9.95;3.22;;;7.90;78.30;;;;;;4916398;29;20044;-87
2021/04/05 12:24:46;;;;;;;2.60;2.28;;;7.80;73.20;;;;;;4891674;29;20056;-88
2021/04/05 12:27:14;;;;;;;5.53;2.85;;;;;;;;;;4886638;29;20211;-88
2021/04/05 12:29:44;;;;;;;6.78;3.08;;;8.00;76.40;;;;;;4906592;29;20040;-85
2021/04/05 12:32:17;;;;;;;6.65;2.40;;;7.90;71.90;;;;;;4924110;29;20059;-86
2021/04/05 12:34:58;;;;;;;4.30;1.50;;;7.90;73.70;;;;;;4904051;29;20068;-85
2021/04/05 12:37:28;;;;;;;5.47;2.10;;;7.70;73.30;;;;;;4894723;29;20067;-88
2021/04/05 12:40:00;;;;;;;8.77;2.80;;;7.50;73.90;;;;;;4921156;29;20062;-87
2021/04/05 12:42:36;;;;;;;5.03;2.65;;;7.50;74.10;;;;;;4928525;29;20049;-87
2021/04/05 12:45:11;;;;;;;4.88;2.58;;;7.70;71.70;;;;;;4910622;29;20070;-87
2021/04/05 12:47:42;;;;;;;8.35;2.22;;;7.60;70.00;;;;;;4912624;29;20052;-87
2021/04/05 12:50:11;;;;;;;3.05;2.53;;;;;;;;;;4923167;29;20687;-84
2021/04/05 12:52:49;;;;;;;2.95;2.28;;;7.70;70.70;;;;;;4896847;29;20067;-86
2021/04/05 12:55:19;;;;;;;4.63;2.50;;;7.70;69.20;;;;;;4928280;29;20056;-86
2021/04/05 12:57:47;;;;;;;5.55;2.00;;;;;;;;;;4909555;29;20047;-87
2021/04/05 13:00:18;;;;;;;4.32;2.15;;;;;;;;;;4929891;29;20047;-88
2021/04/05 13:03:06;;;;;;;4.07;2.90;;;8.00;63.10;;;;;;4895856;29;20063;-88
2021/04/05 13:05:40;;;;;;;6.28;2.90;;;;;;;;;;4879670;29;20053;-85
2021/04/05 13:08:29;;;;;;;3.25;2.28;;;8.10;59.70;;;;;;4915735;29;20051;-87
2021/04/05 13:11:21;;;;;;;2.35;1.70;;;8.20;60.80;;;;;;4910103;29;20045;-84
2021/04/05 13:13:56;;;;;;;4.90;2.10;;;8.30;59.70;;;;;;4918190;29;20512;-85
2021/04/05 13:16:30;;;;;;;2.83;1.77;;;8.80;60.00;;;;;;4891176;29;20047;-87
2021/04/05 13:19:15;;;;;;;4.35;2.53;;;8.40;61.20;;;;;;4928524;29;20063;-87
2021/04/05 13:21:44;;;;;;;2.25;2.05;;;;;;;;;;4933008;29;20072;-87
2021/04/05 13:24:18;;;;;;;5.78;1.60;;;8.70;59.30;;;;;;4902647;29;20048;-84
2021/04/05 13:26:49;;;;;;;3.72;2.22;;;;;;;;;;4904720;29;20052;-86
2021/04/05 13:29:23;;;;;;;3.75;2.22;;;8.90;57.90;;;;;;4904276;29;20041;-88
2021/04/05 13:31:53;;;;;;;7.43;2.13;;;;;;;;;;4918408;29;20059;-86
2021/04/05 13:34:23;;;;;;;4.50;1.30;;;;;;;;;;4915402;29;20420;-85
2021/04/05 13:36:56;;;;;;;7.07;3.22;;;9.20;53.90;;;;;;4912507;29;20051;-88
2021/04/05 13:39:28;;;;;;;4.03;1.95;;;;;;;;;;4902160;29;20051;-90
2021/04/05 13:42:02;;;;;;;5.95;2.47;;;;;;;;;;4878640;29;20060;-86
2021/04/05 13:44:32;;;;;;;6.18;1.42;;;9.10;52.70;;;;;;4876176;29;20532;-91
2021/04/05 13:47:02;;;;;;;4.80;2.05;;;;;;;;;;4891918;29;20059;-86
2021/04/05 13:49:57;;;;;;;8.15;3.20;;;9.50;52.60;;;;;;4905087;29;20056;-89
2021/04/05 13:52:28;;;;;;;4.68;1.90;;;;;;;;;;4914337;29;20060;-87
2021/04/05 13:55:20;;;;;;;4.05;1.75;;;;;;;;;;4869115;29;20639;-86
2021/04/05 13:57:53;;;;;;;2.90;1.52;;;10.50;52.30;;;;;;4870080;29;20052;-86